Time;durP1;ratioP1;P1;durP2;ratioP2;P2;SDS_P1;SDS_P2;PMS_P1;PMS_P2;Temp;Humidity;BMP_temperature;BMP_pressure;BME280_temperature;BME280_humidity;BME280_pressure;Samples;Min_cycle;Max_cycle;Signal;HPM_P1;HPM_P2
2022/06/12 00:01:00;;;;;;;2.08;1.40;;;;;;;;;;4563260;28;20094;-73
2022/06/12 00:03:12;;;;;;;2.22;1.50;;;;;;;;;;4564176;27;20105;-73
2022/06/12 00:05:24;;;;;;;1.75;1.30;;;;;;;;;;4568673;28;20032;-73
2022/06/12 00:07:35;;;;;;;2.65;1.55;;;;;;;;;;4569252;28;20024;-73
2022/06/12 00:09:45;;;;;;;2.13;1.30;;;;;;;;;;4565585;27;20040;-74
2022/06/12 00:11:55;;;;;;;1.70;1.40;;;;;;;;;;4566934;28;20043;-74
2022/06/12 00:14:06;;;;;;;2.58;1.67;;;;;;;;;;4564303;28;20496;-74
2022/06/12 00:16:18;;;;;;;2.85;1.70;;;;;;;;;;4563183;28;20028;-74
2022/06/12 00:18:29;;;;;;;2.53;1.55;;;;;;;;;;4556112;28;20310;-73
2022/06/12 00:20:39;;;;;;;2.50;1.60;;;;;;;;;;4565506;28;20043;-74
2022/06/12 00:22:51;;;;;;;2.40;1.60;;;;;;;;;;4567541;28;20062;-74
2022/06/12 00:25:02;;;;;;;2.47;1.60;;;;;;;;;;4573435;28;20617;-73
2022/06/12 00:27:13;;;;;;;1.77;1.52;;;;;;;;;;4565878;28;20036;-72
2022/06/12 00:29:27;;;;;;;2.40;1.50;;;;;;;;;;4567546;28;20032;-73
2022/06/12 00:31:41;;;;;;;2.67;1.60;;;;;;;;;;4565858;28;20083;-73
2022/06/12 00:33:52;;;;;;;2.22;1.75;;;;;;;;;;4566073;28;20670;-73
2022/06/12 00:36:03;;;;;;;2.78;1.80;;;;;;;;;;4564922;28;20066;-73
2022/06/12 00:38:14;;;;;;;2.35;1.75;;;;;;;;;;4564531;28;20949;-73
2022/06/12 00:40:25;;;;;;;2.42;1.70;;;;;;;;;;4567555;28;20767;-72
2022/06/12 00:42:51;;;;;;;3.40;1.80;;;;;;;;;;4522306;28;1292964;-72
2022/06/12 00:45:31;;;;;;;2.25;1.55;;;;;;;;;;4564801;28;20071;-72
2022/06/12 00:47:42;;;;;;;3.08;1.90;;;;;;;;;;4567560;28;20717;-73
2022/06/12 00:50:03;;;;;;;2.60;1.52;;;;;;;;;;4566767;28;20028;-73
2022/06/12 00:52:18;;;;;;;2.78;1.63;;;;;;;;;;4566052;28;20039;-73
2022/06/12 00:54:29;;;;;;;2.90;1.48;;;;;;;;;;4564813;28;20134;-72
2022/06/12 00:56:47;;;;;;;2.50;1.67;;;;;;;;;;4566150;28;20127;-72
2022/06/12 00:59:09;;;;;;;1.75;1.50;;;;;;;;;;4566059;28;20039;-74
2022/06/12 01:01:28;;;;;;;1.80;1.48;;;;;;;;;;4566024;28;21122;-72
2022/06/12 01:06:33;;;;;;;2.33;1.60;;;;;;;;;;4568434;28;20102;-73
2022/06/12 01:08:39;;;;;;;2.17;1.70;;;;;;;;;;4565766;28;20087;-72
2022/06/12 01:10:53;;;;;;;1.90;1.38;;;;;;;;;;4566018;28;20182;-73
2022/06/12 01:13:08;;;;;;;2.30;1.45;;;;;;;;;;4568247;28;20600;-73
2022/06/12 01:15:27;;;;;;;2.60;1.65;;;;;;;;;;4564880;28;20024;-73
2022/06/12 01:17:39;;;;;;;2.85;1.60;;;;;;;;;;4565766;28;20190;-71
2022/06/12 01:19:56;;;;;;;3.20;1.60;;;;;;;;;;4550532;28;20028;-73
2022/06/12 01:22:15;;;;;;;2.80;1.80;;;;;;;;;;4552689;28;20744;-72
2022/06/12 01:25:03;;;;;;;1.95;1.50;;;;;;;;;;4565584;28;20217;-72
2022/06/12 01:27:58;;;;;;;2.28;1.67;;;;;;;;;;4567028;28;20032;-74
2022/06/12 01:30:32;;;;;;;2.30;1.50;;;;;;;;;;4569121;28;20055;-74
2022/06/12 01:32:43;;;;;;;3.63;1.90;;;;;;;;;;4564733;28;20591;-74
2022/06/12 01:35:11;;;;;;;1.75;1.63;;;;;;;;;;4564783;28;20040;-74
2022/06/12 01:37:31;;;;;;;2.00;1.60;;;;;;;;;;4564385;28;20855;-74
2022/06/12 01:40:02;;;;;;;2.33;1.80;;;;;;;;;;4574620;28;20945;-74
2022/06/12 01:42:19;;;;;;;2.75;1.60;;;;;;;;;;4566331;28;20032;-74
2022/06/12 01:44:52;;;;;;;2.40;1.63;;;;;;;;;;4563517;28;20559;-73
2022/06/12 01:47:10;;;;;;;2.28;1.60;;;;;;;;;;4568767;28;20107;-73
2022/06/12 01:49:50;;;;;;;3.10;1.60;;;;;;;;;;4567360;28;20040;-73
2022/06/12 01:52:13;;;;;;;2.58;1.90;;;;;;;;;;4563836;28;20040;-73
2022/06/12 01:54:30;;;;;;;3.38;1.88;;;;;;;;;;4565564;27;20024;-72
2022/06/12 01:56:53;;;;;;;2.75;1.70;;;;;;;;;;4566396;28;20037;-73
2022/06/12 01:59:16;;;;;;;2.40;1.88;;;;;;;;;;4566375;28;20908;-73
2022/06/12 02:01:33;;;;;;;3.20;1.75;;;;;;;;;;4565769;28;20075;-73
2022/06/12 02:03:49;;;;;;;3.08;1.77;;;;;;;;;;4567311;28;20094;-73
2022/06/12 02:06:07;;;;;;;3.75;1.80;;;;;;;;;;4566543;27;20035;-73
2022/06/12 02:08:39;;;;;;;2.17;1.60;;;;;;;;;;4567655;27;20079;-73
2022/06/12 02:10:54;;;;;;;2.17;1.67;;;;;;;;;;4566396;28;20495;-73
2022/06/12 02:13:14;;;;;;;2.20;1.65;;;;;;;;;;4552969;28;20087;-73
2022/06/12 02:15:45;;;;;;;1.90;1.70;;;;;;;;;;4552137;28;20055;-73
2022/06/12 02:18:02;;;;;;;2.35;1.67;;;;;;;;;;4563836;28;20301;-74
2022/06/12 02:20:16;;;;;;;3.38;1.77;;;;;;;;;;4567390;28;20016;-73
2022/06/12 02:22:28;;;;;;;2.00;1.70;;;;;;;;;;4568839;28;20035;-74
2022/06/12 02:24:51;;;;;;;1.60;1.50;;;;;;;;;;4566171;28;20032;-73
2022/06/12 02:27:15;;;;;;;2.42;1.80;;;;;;;;;;4574482;28;20031;-71
2022/06/12 02:29:42;;;;;;;1.55;1.42;;;;;;;;;;4569494;27;20147;-74
2022/06/12 02:31:54;;;;;;;2.47;1.65;;;;;;;;;;4568410;28;20036;-73
2022/06/12 02:34:09;;;;;;;2.22;1.60;;;;;;;;;;4565564;28;20032;-73
2022/06/12 02:36:32;;;;;;;2.10;1.50;;;;;;;;;;4567621;28;20135;-73
2022/06/12 02:38:51;;;;;;;2.00;1.60;;;;;;;;;;4568160;28;20643;-73
2022/06/12 02:41:07;;;;;;;2.65;1.90;;;;;;;;;;4573500;28;20079;-73
2022/06/12 02:43:21;;;;;;;2.45;1.85;;;;;;;;;;4564374;28;20032;-73
2022/06/12 02:45:38;;;;;;;3.25;1.73;;;;;;;;;;4563614;27;20645;-73
2022/06/12 02:47:49;;;;;;;1.50;1.40;;;;;;;;;;4572862;28;20024;-73
2022/06/12 02:50:00;;;;;;;2.78;1.70;;;;;;;;;;4565185;28;20071;-73
2022/06/12 02:52:21;;;;;;;1.80;1.70;;;;;;;;;;4573327;28;20119;-74
2022/06/12 02:54:43;;;;;;;2.08;1.80;;;;;;;;;;4563762;28;20092;-73
2022/06/12 02:57:02;;;;;;;2.47;1.60;;;;;;;;;;4567473;28;20032;-72
2022/06/12 02:59:54;;;;;;;2.80;1.63;;;;;;;;;;4564959;28;20079;-71
2022/06/12 03:02:18;;;;;;;3.03;1.60;;;;;;;;;;4563189;28;20067;-74
2022/06/12 03:04:43;;;;;;;4.00;2.13;;;;;;;;;;4564871;28;20033;-74
2022/06/12 03:06:53;;;;;;;1.92;1.73;;;;;;;;;;4566977;28;20028;-73
2022/06/12 03:09:06;;;;;;;3.22;1.83;;;;;;;;;;4563270;28;20036;-74
2022/06/12 03:11:26;;;;;;;3.63;1.65;;;;;;;;;;4562310;28;20036;-74
2022/06/12 03:13:38;;;;;;;3.00;1.80;;;;;;;;;;4563699;28;20809;-74
2022/06/12 03:15:52;;;;;;;2.50;1.48;;;;;;;;;;4564009;28;20039;-74
2022/06/12 03:18:07;;;;;;;2.65;1.55;;;;;;;;;;4563743;27;20032;-74
2022/06/12 03:20:18;;;;;;;3.42;2.00;;;;;;;;;;4561478;28;20037;-74
2022/06/12 03:22:28;;;;;;;2.45;1.70;;;;;;;;;;4563713;28;20037;-74
2022/06/12 03:25:10;;;;;;;3.00;1.75;;;;;;;;;;4565007;27;20473;-74
2022/06/12 03:27:32;;;;;;;1.90;1.50;;;;;;;;;;4561678;28;20040;-74
2022/06/12 03:30:11;;;;;;;1.92;1.58;;;;;;;;;;4562726;28;20063;-72
2022/06/12 03:32:33;;;;;;;3.13;1.50;;;;;;;;;;4565319;27;20040;-73
2022/06/12 03:35:13;;;;;;;2.30;1.60;;;;;;;;;;4563924;28;20032;-72
2022/06/12 03:37:39;;;;;;;3.30;1.75;;;;;;;;;;4557167;28;20058;-72
2022/06/12 03:40:03;;;;;;;2.97;1.70;;;;;;;;;;4556397;28;20109;-72
2022/06/12 03:42:29;;;;;;;2.60;1.70;;;;;;;;;;4568647;28;20179;-73
2022/06/12 03:45:22;;;;;;;2.38;1.70;;;;;;;;;;4570081;28;20104;-73
2022/06/12 03:47:46;;;;;;;2.00;1.70;;;;;;;;;;4534687;28;20115;-73
2022/06/12 03:50:13;;;;;;;2.17;1.70;;;;;;;;;;4557499;28;20792;-74
2022/06/12 03:52:32;;;;;;;1.90;1.60;;;;;;;;;;4566628;28;20635;-74
2022/06/12 03:54:48;;;;;;;2.33;1.90;;;;;;;;;;4557525;28;20064;-73
2022/06/12 03:59:40;;;;;;;;;;;;;;;;;;4569255;28;20040;-73
2022/06/12 04:01:51;;;;;;;3.05;1.70;;;;;;;;;;4566354;28;19923;-74
2022/06/12 04:04:03;;;;;;;3.00;1.83;;;;;;;;;;4565683;28;20028;-73
2022/06/12 04:06:17;;;;;;;3.00;1.88;;;;;;;;;;4567748;28;20543;-73
2022/06/12 04:09:09;;;;;;;2.10;1.63;;;;;;;;;;4566303;28;20114;-74
2022/06/12 04:11:22;;;;;;;2.55;1.88;;;;;;;;;;4530110;28;20577;-74
2022/06/12 04:13:34;;;;;;;3.90;2.20;;;;;;;;;;4537166;28;20044;-74
2022/06/12 04:15:57;;;;;;;3.13;1.63;;;;;;;;;;4565761;28;20123;-74
2022/06/12 04:18:07;;;;;;;2.53;1.58;;;;;;;;;;4565851;28;20037;-73
2022/06/12 04:20:20;;;;;;;2.13;1.70;;;;;;;;;;4566379;27;20028;-73
2022/06/12 04:22:53;;;;;;;2.20;1.80;;;;;;;;;;4574907;28;20040;-73
2022/06/12 04:25:34;;;;;;;2.72;1.67;;;;;;;;;;4574702;28;20040;-73
2022/06/12 04:27:45;;;;;;;2.20;1.83;;;;;;;;;;4540310;28;20596;-73
2022/06/12 04:30:04;;;;;;;2.60;1.90;;;;;;;;;;4568634;28;20536;-73
2022/06/12 04:32:14;;;;;;;2.63;1.95;;;;;;;;;;4564772;28;20135;-73
2022/06/12 04:34:29;;;;;;;2.33;1.60;;;;;;;;;;4565883;28;20041;-72
2022/06/12 04:36:41;;;;;;;3.28;1.80;;;;;;;;;;4567178;28;20047;-73
2022/06/12 04:38:53;;;;;;;3.72;2.13;;;;;;;;;;4565240;28;20024;-73
2022/06/12 04:41:04;;;;;;;2.50;1.70;;;;;;;;;;4568708;28;20044;-73
2022/06/12 04:43:15;;;;;;;2.67;1.60;;;;;;;;;;4574451;28;20043;-73
2022/06/12 04:45:25;;;;;;;2.83;1.90;;;;;;;;;;4564838;28;20582;-74
2022/06/12 04:47:36;;;;;;;3.08;2.13;;;;;;;;;;4566281;28;20024;-74
2022/06/12 04:49:47;;;;;;;2.75;1.80;;;;;;;;;;4564362;27;20052;-72
2022/06/12 04:51:59;;;;;;;2.85;1.80;;;;;;;;;;4565132;28;20024;-73
2022/06/12 04:54:09;;;;;;;2.13;1.63;;;;;;;;;;4566371;28;20854;-73
2022/06/12 04:56:22;;;;;;;3.00;1.80;;;;;;;;;;4564285;28;20036;-73
2022/06/12 04:58:32;;;;;;;2.22;1.70;;;;;;;;;;4565732;28;20040;-74
2022/06/12 05:00:43;;;;;;;3.00;1.67;;;;;;;;;;4572893;28;20039;-73
2022/06/12 05:02:54;;;;;;;3.80;1.80;;;;;;;;;;4563821;28;20401;-74
2022/06/12 05:05:05;;;;;;;3.72;1.80;;;;;;;;;;4565925;27;20032;-73
2022/06/12 05:07:15;;;;;;;3.28;1.63;;;;;;;;;;4566630;28;20037;-74
2022/06/12 05:09:28;;;;;;;2.42;1.50;;;;;;;;;;4564903;28;20886;-73
2022/06/12 05:11:40;;;;;;;3.50;1.80;;;;;;;;;;4566293;28;20039;-73
2022/06/12 05:13:50;;;;;;;3.00;1.50;;;;;;;;;;4566095;27;20030;-73
2022/06/12 05:16:01;;;;;;;3.70;1.70;;;;;;;;;;4564339;28;20036;-73
2022/06/12 05:18:14;;;;;;;2.47;1.50;;;;;;;;;;4563030;28;20039;-73
2022/06/12 05:20:28;;;;;;;2.95;1.98;;;;;;;;;;4565198;27;20087;-74
2022/06/12 05:22:38;;;;;;;2.67;1.60;;;;;;;;;;4563557;28;20576;-73
2022/06/12 05:24:49;;;;;;;2.40;1.60;;;;;;;;;;4564731;27;20036;-72
2022/06/12 05:26:59;;;;;;;3.53;2.00;;;;;;;;;;4561197;28;20032;-72
2022/06/12 05:29:14;;;;;;;3.85;1.90;;;;;;;;;;4565242;28;20044;-73
2022/06/12 05:31:24;;;;;;;2.13;1.85;;;;;;;;;;4558240;28;20630;-73
2022/06/12 05:33:35;;;;;;;2.97;1.83;;;;;;;;;;4564232;28;20286;-73
2022/06/12 05:35:46;;;;;;;2.15;1.70;;;;;;;;;;4545962;28;21721;-73
2022/06/12 05:37:58;;;;;;;3.03;1.88;;;;;;;;;;4562755;28;20062;-73
2022/06/12 05:40:12;;;;;;;3.92;1.90;;;;;;;;;;4565958;28;20020;-73
2022/06/12 05:42:23;;;;;;;3.75;1.90;;;;;;;;;;4568311;28;20236;-73
2022/06/12 05:44:34;;;;;;;4.15;1.90;;;;;;;;;;4564687;28;20117;-73
2022/06/12 05:46:45;;;;;;;3.03;1.92;;;;;;;;;;4564196;28;20028;-67
2022/06/12 05:48:55;;;;;;;3.47;1.90;;;;;;;;;;4562034;28;20235;-68
2022/06/12 05:51:06;;;;;;;2.70;1.65;;;;;;;;;;4563654;28;20025;-69
2022/06/12 05:53:17;;;;;;;2.55;1.70;;;;;;;;;;4562989;27;20508;-68
2022/06/12 05:55:28;;;;;;;3.45;1.80;;;;;;;;;;4564011;28;20047;-68
2022/06/12 05:57:39;;;;;;;2.38;1.83;;;;;;;;;;4564973;28;20539;-69
2022/06/12 05:59:49;;;;;;;2.70;1.90;;;;;;;;;;4571822;27;20035;-68
2022/06/12 06:02:00;;;;;;;2.72;2.08;;;;;;;;;;4562897;28;20423;-68
2022/06/12 06:04:10;;;;;;;3.50;2.00;;;;;;;;;;4565378;27;20039;-68
2022/06/12 06:06:30;;;;;;;2.78;1.90;;;;;;;;;;4562102;28;20495;-68
2022/06/12 06:08:40;;;;;;;3.53;2.00;;;;;;;;;;4566805;28;20130;-68
2022/06/12 06:10:51;;;;;;;4.25;2.10;;;;;;;;;;4560911;28;26351;-68
2022/06/12 06:13:02;;;;;;;3.47;2.25;;;;;;;;;;4561121;28;20123;-69
2022/06/12 06:15:12;;;;;;;3.00;2.00;;;;;;;;;;4562971;28;20606;-68
2022/06/12 06:17:23;;;;;;;3.83;2.00;;;;;;;;;;4551510;28;20033;-68
2022/06/12 06:19:33;;;;;;;2.63;2.03;;;;;;;;;;4564439;28;20115;-69
2022/06/12 06:21:45;;;;;;;3.95;2.45;;;;;;;;;;4572948;28;20047;-68
2022/06/12 06:23:55;;;;;;;3.10;2.08;;;;;;;;;;4564978;28;20071;-68
2022/06/12 06:26:06;;;;;;;3.58;2.40;;;;;;;;;;4550004;28;20157;-67
2022/06/12 06:28:17;;;;;;;3.45;2.10;;;;;;;;;;4563234;28;20686;-68
2022/06/12 06:30:28;;;;;;;2.95;2.22;;;;;;;;;;4563204;28;20077;-68
2022/06/12 06:32:39;;;;;;;3.83;2.10;;;;;;;;;;4564511;28;20047;-68
2022/06/12 06:34:49;;;;;;;3.30;2.10;;;;;;;;;;4565028;28;20035;-68
2022/06/12 06:37:00;;;;;;;4.32;2.05;;;;;;;;;;4564028;28;20036;-68
2022/06/12 06:39:10;;;;;;;3.58;2.20;;;;;;;;;;4564560;28;20492;-68
2022/06/12 06:41:22;;;;;;;4.10;2.10;;;;;;;;;;4563275;28;20038;-68
2022/06/12 06:46:13;;;;;;;4.63;2.10;;;;;;;;;;4582607;27;20093;-68
2022/06/12 06:46:15;;;;;;;3.38;1.92;;;;;;;;;;4562575;28;20131;-69
2022/06/12 06:48:27;;;;;;;4.10;2.00;;;;;;;;;;4565009;28;20047;-68
2022/06/12 06:50:38;;;;;;;4.18;2.25;;;;;;;;;;4564989;28;20469;-68
2022/06/12 06:52:48;;;;;;;3.95;2.40;;;;;;;;;;4549755;28;20685;-69
2022/06/12 06:54:59;;;;;;;3.28;2.20;;;;;;;;;;4547612;28;20053;-68
2022/06/12 06:57:10;;;;;;;3.35;2.13;;;;;;;;;;4564403;27;20032;-69
2022/06/12 06:59:21;;;;;;;3.83;2.38;;;;;;;;;;4565153;28;20143;-68
2022/06/12 07:01:31;;;;;;;5.97;2.58;;;;;;;;;;4565017;28;20040;-68
2022/06/12 07:03:43;;;;;;;4.78;2.78;;;;;;;;;;4554979;28;20024;-68
2022/06/12 07:05:54;;;;;;;5.78;2.63;;;;;;;;;;4561445;28;20040;-68
2022/06/12 07:08:06;;;;;;;3.63;2.00;;;;;;;;;;4560609;28;20094;-69
2022/06/12 07:10:20;;;;;;;5.80;2.65;;;;;;;;;;4565173;28;20035;-69
2022/06/12 07:12:31;;;;;;;4.55;2.42;;;;;;;;;;4567421;28;20068;-69
2022/06/12 07:14:41;;;;;;;3.95;2.30;;;;;;;;;;4565881;28;20135;-69
2022/06/12 07:16:51;;;;;;;5.32;2.20;;;;;;;;;;4567931;27;20097;-69
2022/06/12 07:19:03;;;;;;;3.40;2.20;;;;;;;;;;4567774;28;20032;-69
2022/06/12 07:21:14;;;;;;;4.78;2.55;;;;;;;;;;4568971;28;20176;-69
2022/06/12 07:23:25;;;;;;;3.83;2.08;;;;;;;;;;4565693;28;20618;-69
2022/06/12 07:25:41;;;;;;;4.45;2.40;;;;;;;;;;4565311;28;20036;-68
2022/06/12 07:27:52;;;;;;;5.50;2.42;;;;;;;;;;4566526;27;20815;-69
2022/06/12 07:30:02;;;;;;;4.30;2.10;;;;;;;;;;4563695;28;20128;-69
2022/06/12 07:32:13;;;;;;;3.45;2.13;;;;;;;;;;4567608;28;20064;-69
2022/06/12 07:34:24;;;;;;;5.25;2.20;;;;;;;;;;4564886;28;20119;-68
2022/06/12 07:36:36;;;;;;;4.38;2.05;;;;;;;;;;4566917;28;20718;-68
2022/06/12 07:38:48;;;;;;;4.47;2.20;;;;;;;;;;4566090;28;20723;-66
2022/06/12 07:41:00;;;;;;;3.13;1.92;;;;;;;;;;4574648;28;20040;-67
2022/06/12 07:43:11;;;;;;;3.92;2.05;;;;;;;;;;4564012;28;20040;-68
2022/06/12 07:45:21;;;;;;;4.78;2.08;;;;;;;;;;4567274;28;20028;-69
2022/06/12 07:47:32;;;;;;;5.30;2.08;;;;;;;;;;4566721;27;20553;-68
2022/06/12 07:49:43;;;;;;;4.15;1.90;;;;;;;;;;4564913;28;20031;-69
2022/06/12 07:51:55;;;;;;;4.18;1.70;;;;;;;;;;4564723;27;20040;-70
2022/06/12 07:54:06;;;;;;;4.10;1.45;;;;;;;;;;4566206;27;20614;-69
2022/06/12 07:56:18;;;;;;;3.83;1.80;;;;;;;;;;4563444;28;20075;-69
2022/06/12 07:58:29;;;;;;;3.22;1.70;;;;;;;;;;4565914;28;20074;-70
2022/06/12 08:00:41;;;;;;;3.30;2.00;;;;;;;;;;4563189;28;20513;-69
2022/06/12 08:02:52;;;;;;;3.63;1.88;;;;;;;;;;4566511;28;20028;-68
2022/06/12 08:05:03;;;;;;;4.63;1.90;;;;;;;;;;4564896;28;20465;-69
2022/06/12 08:07:13;;;;;;;4.55;2.22;;;;;;;;;;4566637;28;20036;-69
2022/06/12 08:09:24;;;;;;;3.38;1.60;;;;;;;;;;4564480;28;20037;-69
2022/06/12 08:11:35;;;;;;;4.88;1.70;;;;;;;;;;4568254;28;20368;-67
2022/06/12 08:13:45;;;;;;;4.15;2.03;;;;;;;;;;4565798;28;20035;-69
2022/06/12 08:15:56;;;;;;;3.08;1.55;;;;;;;;;;4568836;27;20047;-69
2022/06/12 08:18:06;;;;;;;5.55;1.80;;;;;;;;;;4563880;28;20460;-68
2022/06/12 08:20:24;;;;;;;4.05;1.80;;;;;;;;;;4567516;28;20040;-70
2022/06/12 08:22:35;;;;;;;4.03;1.83;;;;;;;;;;4564293;27;20078;-69
2022/06/12 08:24:46;;;;;;;4.20;1.60;;;;;;;;;;4579862;27;20707;-68
2022/06/12 08:26:56;;;;;;;3.90;1.48;;;;;;;;;;4566600;28;20039;-71
2022/06/12 08:29:09;;;;;;;3.28;1.60;;;;;;;;;;4563690;28;20105;-69
2022/06/12 08:31:26;;;;;;;3.45;1.40;;;;;;;;;;4573475;28;21247;-69
2022/06/12 08:33:39;;;;;;;5.35;1.77;;;;;;;;;;4562019;28;20186;-70
2022/06/12 08:35:50;;;;;;;2.70;1.48;;;;;;;;;;4562901;28;20041;-69
2022/06/12 08:38:00;;;;;;;4.15;1.60;;;;;;;;;;4555903;28;20052;-69
2022/06/12 08:40:35;;;;;;;2.17;1.30;;;;;;;;;;4564859;28;20043;-69
2022/06/12 08:42:54;;;;;;;3.20;1.38;;;;;;;;;;4563890;28;20045;-68
2022/06/12 08:45:15;;;;;;;2.45;1.30;;;;;;;;;;4561554;28;20567;-69
2022/06/12 08:47:32;;;;;;;2.40;1.35;;;;;;;;;;4564165;28;20032;-69
2022/06/12 08:50:14;;;;;;;3.17;1.25;;;;;;;;;;4554757;28;20059;-69
2022/06/12 08:52:57;;;;;;;2.60;1.20;;;;;;;;;;4550332;27;20044;-69
2022/06/12 08:55:16;;;;;;;3.30;1.30;;;;;;;;;;4546859;28;20641;-69
2022/06/12 08:57:34;;;;;;;2.22;1.13;;;;;;;;;;4561467;28;20020;-69
2022/06/12 09:00:19;;;;;;;3.35;1.52;;;;;;;;;;4565806;28;21390;-70
2022/06/12 09:02:32;;;;;;;2.10;1.02;;;;;;;;;;4563639;27;20066;-69
2022/06/12 09:04:43;;;;;;;3.20;1.30;;;;;;;;;;4563942;28;20028;-69
2022/06/12 09:07:14;;;;;;;3.20;1.23;;;;;;;;;;4562959;28;20035;-70
2022/06/12 09:09:35;;;;;;;2.72;1.25;;;;;;;;;;4545886;28;20534;-70
2022/06/12 09:11:48;;;;;;;2.75;1.15;;;;;;;;;;4572619;28;20952;-70
2022/06/12 09:14:29;;;;;;;2.15;1.30;;;;;;;;;;4564340;28;20039;-69
2022/06/12 09:17:04;;;;;;;4.10;1.33;;;;;;;;;;4564224;28;20133;-69
2022/06/12 09:20:00;;;;;;;2.40;1.20;;;;;;;;;;4563887;27;20570;-70
2022/06/12 09:22:20;;;;;;;1.92;1.15;;;;;;;;;;4529913;28;20549;-70
2022/06/12 09:24:34;;;;;;;2.72;1.30;;;;;;;;;;4550015;28;20041;-70
2022/06/12 09:27:02;;;;;;;2.50;1.08;;;;;;;;;;4564512;28;20040;-70
2022/06/12 09:29:21;;;;;;;2.20;1.02;;;;;;;;;;4556023;28;20075;-70
2022/06/12 09:31:40;;;;;;;3.30;1.13;;;;;;;;;;4563313;28;20040;-69
2022/06/12 09:34:12;;;;;;;2.63;1.10;;;;;;;;;;4566819;27;20036;-69
2022/06/12 09:36:33;;;;;;;3.10;1.00;;;;;;;;;;4566090;28;20112;-70
2022/06/12 09:38:55;;;;;;;1.80;0.95;;;;;;;;;;4566384;28;21593;-70
2022/06/12 09:41:20;;;;;;;2.42;1.02;;;;;;;;;;4563496;28;20762;-70
2022/06/12 09:43:42;;;;;;;2.13;1.05;;;;;;;;;;4573649;28;20090;-70
2022/06/12 09:45:59;;;;;;;3.03;1.02;;;;;;;;;;4564031;28;20074;-70
2022/06/12 09:48:36;;;;;;;2.90;1.10;;;;;;;;;;4567583;28;20040;-70
2022/06/12 09:51:14;;;;;;;1.30;0.63;;;;;;;;;;4572470;28;20032;-70
2022/06/12 09:53:57;;;;;;;;;;;;;;;;;;4564555;28;20837;-68
2022/06/12 09:56:12;;;;;;;3.67;1.10;;;;;;;;;;4539736;27;20584;-70
2022/06/12 09:58:26;;;;;;;2.53;1.00;;;;;;;;;;4563733;28;20504;-70
2022/06/12 10:00:46;;;;;;;2.60;1.00;;;;;;;;;;4563632;28;20025;-70
2022/06/12 10:03:07;;;;;;;2.60;0.90;;;;;;;;;;4566465;28;20058;-70
2022/06/12 10:05:34;;;;;;;1.58;0.70;;;;;;;;;;4563001;28;20033;-70
2022/06/12 10:07:57;;;;;;;1.90;0.90;;;;;;;;;;4566227;28;20024;-70
2022/06/12 10:10:23;;;;;;;3.42;0.82;;;;;;;;;;4557117;28;20089;-69
2022/06/12 10:12:37;;;;;;;1.98;0.80;;;;;;;;;;4566587;28;20040;-70
2022/06/12 10:14:51;;;;;;;0.93;0.73;;;;;;;;;;4564871;27;20041;-69
2022/06/12 10:17:09;;;;;;;2.08;0.82;;;;;;;;;;4561731;28;20912;-70
2022/06/12 10:19:29;;;;;;;2.10;0.82;;;;;;;;;;4566605;28;20572;-70
2022/06/12 10:21:41;;;;;;;2.78;0.98;;;;;;;;;;4564774;28;20064;-69
2022/06/12 10:23:52;;;;;;;2.20;0.85;;;;;;;;;;4566584;27;20590;-70
2022/06/12 10:26:12;;;;;;;2.38;0.88;;;;;;;;;;4553980;28;20310;-70
2022/06/12 10:28:33;;;;;;;1.98;1.10;;;;;;;;;;4562465;28;21031;-70
2022/06/12 10:30:46;;;;;;;3.63;1.40;;;;;;;;;;4566503;28;20270;-69
2022/06/12 10:32:58;;;;;;;2.05;1.00;;;;;;;;;;4560221;28;20619;-70
2022/06/12 10:35:21;;;;;;;1.55;0.90;;;;;;;;;;4566126;27;20090;-69
2022/06/12 10:37:32;;;;;;;2.22;1.08;;;;;;;;;;4562782;28;20062;-70
2022/06/12 10:39:42;;;;;;;2.75;1.02;;;;;;;;;;4562972;28;20457;-70
2022/06/12 10:41:59;;;;;;;3.22;1.08;;;;;;;;;;4563414;28;20044;-70
2022/06/12 10:44:27;;;;;;;2.80;1.00;;;;;;;;;;4571373;28;20036;-70
2022/06/12 10:46:37;;;;;;;;;;;;;;;;;;4564557;28;20051;-70
2022/06/12 10:49:18;;;;;;;2.35;1.05;;;;;;;;;;4568035;28;19923;-71
2022/06/12 10:51:38;;;;;;;1.25;1.05;;;;;;;;;;4566170;28;21411;-70
2022/06/12 10:53:57;;;;;;;1.80;0.80;;;;;;;;;;4552627;28;20086;-69
2022/06/12 10:56:07;;;;;;;3.33;1.02;;;;;;;;;;4565644;28;20044;-70
2022/06/12 10:58:37;;;;;;;2.55;1.10;;;;;;;;;;4569407;28;20045;-70
2022/06/12 11:00:48;;;;;;;2.92;1.10;;;;;;;;;;4564672;28;20029;-70
2022/06/12 11:03:27;;;;;;;2.60;1.00;;;;;;;;;;4558191;28;20036;-70
2022/06/12 11:05:48;;;;;;;1.08;0.85;;;;;;;;;;4574963;28;20036;-70
2022/06/12 11:08:05;;;;;;;3.35;1.02;;;;;;;;;;4569209;28;20039;-70
2022/06/12 11:10:34;;;;;;;;;;;;;;;;;;4565650;28;20032;-70
2022/06/12 11:12:54;;;;;;;2.80;1.00;;;;;;;;;;4567308;27;19950;-70
2022/06/12 11:15:16;;;;;;;1.98;1.30;;;;;;;;;;4567087;28;20036;-70
2022/06/12 11:17:39;;;;;;;2.58;1.17;;;;;;;;;;4574997;28;20772;-71
2022/06/12 11:20:33;;;;;;;3.35;1.20;;;;;;;;;;4569370;28;20500;-70
2022/06/12 11:23:07;;;;;;;2.40;1.05;;;;;;;;;;4562605;28;20724;-70
2022/06/12 11:25:55;;;;;;;2.67;1.40;;;;;;;;;;4573314;28;20063;-70
2022/06/12 11:28:12;;;;;;;1.63;1.10;;;;;;;;;;4564430;28;20032;-70
2022/06/12 11:30:35;;;;;;;1.70;1.10;;;;;;;;;;4566635;28;20043;-70
2022/06/12 11:33:07;;;;;;;4.07;1.30;;;;;;;;;;4564744;28;20537;-70
2022/06/12 11:35:29;;;;;;;3.05;1.10;;;;;;;;;;4573580;28;20044;-70
2022/06/12 11:37:54;;;;;;;2.25;1.00;;;;;;;;;;4562100;28;20133;-70
2022/06/12 11:40:44;;;;;;;3.03;1.23;;;;;;;;;;4574606;28;20039;-69
2022/06/12 11:43:14;;;;;;;2.75;1.10;;;;;;;;;;4559549;28;20052;-70
2022/06/12 11:45:38;;;;;;;1.95;1.10;;;;;;;;;;4563673;28;20095;-70
2022/06/12 11:47:57;;;;;;;2.72;1.17;;;;;;;;;;4574278;28;20122;-69
2022/06/12 11:50:33;;;;;;;2.20;1.15;;;;;;;;;;4566036;28;20064;-70
2022/06/12 11:53:12;;;;;;;2.25;1.10;;;;;;;;;;4555479;28;20163;-70
2022/06/12 11:55:42;;;;;;;2.97;1.10;;;;;;;;;;4566551;28;20040;-70
2022/06/12 11:58:31;;;;;;;2.83;1.20;;;;;;;;;;4567141;28;20127;-70
2022/06/12 12:01:03;;;;;;;2.58;1.10;;;;;;;;;;4565257;28;20047;-70
2022/06/12 12:03:16;;;;;;;2.30;0.90;;;;;;;;;;4565250;28;20040;-69
2022/06/12 12:05:49;;;;;;;2.72;0.98;;;;;;;;;;4565409;28;20147;-70
2022/06/12 12:08:12;;;;;;;3.45;1.00;;;;;;;;;;4565338;28;20043;-70
2022/06/12 12:10:31;;;;;;;1.63;0.90;;;;;;;;;;4564770;28;20031;-70
2022/06/12 12:12:45;;;;;;;1.63;0.90;;;;;;;;;;4564752;28;20050;-70
2022/06/12 12:14:58;;;;;;;2.47;1.00;;;;;;;;;;4565574;28;20045;-70
2022/06/12 12:17:13;;;;;;;3.75;1.20;;;;;;;;;;4573274;28;20032;-70
2022/06/12 12:19:30;;;;;;;2.85;1.00;;;;;;;;;;4558774;28;20044;-69
2022/06/12 12:21:43;;;;;;;;;;;;;;;;;;4565653;28;20765;-69
2022/06/12 12:23:54;;;;;;;2.40;1.02;;;;;;;;;;4564138;28;19959;-70
2022/06/12 12:26:25;;;;;;;1.90;0.98;;;;;;;;;;4565123;28;20035;-70
2022/06/12 12:28:50;;;;;;;1.88;1.00;;;;;;;;;;4567505;28;20032;-70
2022/06/12 12:31:04;;;;;;;4.15;1.20;;;;;;;;;;4564776;28;21203;-69
2022/06/12 12:33:17;;;;;;;2.72;1.10;;;;;;;;;;4557379;28;20207;-70
2022/06/12 12:43:06;;;;;;;1.75;1.00;;;;;;;;;;4571899;28;20881;-70
2022/06/12 12:45:23;;;;;;;1.80;0.90;;;;;;;;;;4565565;27;20719;-70
2022/06/12 12:47:33;;;;;;;2.30;1.20;;;;;;;;;;4556007;28;20854;-70
2022/06/12 12:49:44;;;;;;;2.90;0.98;;;;;;;;;;4567086;27;20127;-70
2022/06/12 12:52:14;;;;;;;1.63;0.88;;;;;;;;;;4565613;28;20179;-70
2022/06/12 12:54:25;;;;;;;3.35;1.27;;;;;;;;;;4567735;28;20660;-70
2022/06/12 12:56:39;;;;;;;1.98;0.90;;;;;;;;;;4566862;28;20032;-70
2022/06/12 12:58:56;;;;;;;2.60;1.20;;;;;;;;;;4565290;28;20980;-70
2022/06/12 13:01:07;;;;;;;2.92;1.17;;;;;;;;;;4574187;28;20043;-70
2022/06/12 13:03:23;;;;;;;1.83;1.10;;;;;;;;;;4573361;28;20051;-70
2022/06/12 13:05:40;;;;;;;2.47;1.10;;;;;;;;;;4566586;27;20032;-69
2022/06/12 13:08:16;;;;;;;2.42;1.10;;;;;;;;;;4550595;28;20811;-70
2022/06/12 13:10:45;;;;;;;1.58;1.00;;;;;;;;;;4564958;28;20033;-69
2022/06/12 13:13:19;;;;;;;2.00;1.00;;;;;;;;;;4566156;28;20031;-69
2022/06/12 13:15:42;;;;;;;3.17;1.02;;;;;;;;;;4572709;28;20052;-67
2022/06/12 13:18:09;;;;;;;4.35;1.30;;;;;;;;;;4564760;28;20028;-72
2022/06/12 13:20:41;;;;;;;2.15;0.90;;;;;;;;;;4567035;28;21578;-71
2022/06/12 13:22:57;;;;;;;2.38;0.90;;;;;;;;;;4566309;28;20072;-73
2022/06/12 13:25:35;;;;;;;1.52;1.00;;;;;;;;;;4565961;28;20905;-73
2022/06/12 13:27:59;;;;;;;2.58;1.20;;;;;;;;;;4562020;28;20045;-73
2022/06/12 13:30:39;;;;;;;1.52;0.80;;;;;;;;;;4564899;28;20047;-71
2022/06/12 13:32:50;;;;;;;2.05;1.00;;;;;;;;;;4566005;28;20032;-70
2022/06/12 13:35:07;;;;;;;3.03;1.00;;;;;;;;;;4562726;28;20032;-72
2022/06/12 13:37:18;;;;;;;2.40;0.90;;;;;;;;;;4565321;28;20036;-70
2022/06/12 13:39:47;;;;;;;2.85;0.90;;;;;;;;;;4565447;28;20396;-70
2022/06/12 13:42:07;;;;;;;2.85;0.82;;;;;;;;;;4562951;28;20040;-68
2022/06/12 13:44:22;;;;;;;2.08;0.93;;;;;;;;;;4564995;28;20965;-69
2022/06/12 13:46:35;;;;;;;2.63;1.00;;;;;;;;;;4563668;28;20036;-70
2022/06/12 13:48:46;;;;;;;2.22;1.10;;;;;;;;;;4561594;28;20037;-69
2022/06/12 13:51:04;;;;;;;1.98;0.90;;;;;;;;;;4564505;28;20037;-70
2022/06/12 13:53:17;;;;;;;1.30;0.90;;;;;;;;;;4562969;28;20040;-69
2022/06/12 13:55:34;;;;;;;1.23;0.80;;;;;;;;;;4575196;27;20130;-68
2022/06/12 13:57:44;;;;;;;2.20;1.10;;;;;;;;;;4564502;28;20803;-69
2022/06/12 13:59:55;;;;;;;2.00;1.00;;;;;;;;;;4562032;28;20037;-71
2022/06/12 14:02:08;;;;;;;1.52;1.08;;;;;;;;;;4542255;28;20036;-71
2022/06/12 14:04:23;;;;;;;1.80;0.98;;;;;;;;;;4558744;28;20036;-70